Time;durP1;ratioP1;P1;durP2;ratioP2;P2;SDS_P1;SDS_P2;PMS_P1;PMS_P2;Temp;Humidity;BMP_temperature;BMP_pressure;BME280_temperature;BME280_humidity;BME280_pressure;Samples;Min_cycle;Max_cycle;Signal;HPM_P1;HPM_P2
2023/02/08 00:01:23;;;;;;;13.50;7.90;;;;;;;-128.00;-1.00;-1.00;101927;1256;1013123;-64
2023/02/08 00:03:51;;;;;;;11.60;6.90;;;;;;;-128.00;-1.00;-1.00;101768;1256;1011949;-63
2023/02/08 00:06:20;;;;;;;11.70;7.10;;;;;;;-128.00;-1.00;-1.00;101883;1254;1013036;-64
2023/02/08 00:08:49;;;;;;;10.80;7.00;;;;;;;-128.00;-1.00;-1.00;101851;1257;1015575;-67
2023/02/08 00:11:18;;;;;;;11.90;6.80;;;;;;;-128.00;-1.00;-1.00;101784;1254;1015284;-64
2023/02/08 00:13:47;;;;;;;11.60;7.20;;;;;;;-128.00;-1.00;-1.00;101697;1254;1011033;-65
2023/02/08 00:16:17;;;;;;;12.50;7.20;;;;;;;-128.00;-1.00;-1.00;101874;1255;1011255;-66
2023/02/08 00:18:46;;;;;;;11.70;7.30;;;;;;;-128.00;-1.00;-1.00;101798;1260;1013725;-65
2023/02/08 00:21:15;;;;;;;12.50;7.20;;;;;;;-128.00;-1.00;-1.00;101706;1254;1014025;-65
2023/02/08 00:23:45;;;;;;;11.30;7.10;;;;;;;-128.00;-1.00;-1.00;101798;1257;1013023;-66
2023/02/08 00:26:14;;;;;;;13.80;7.40;;;;;;;-128.00;-1.00;-1.00;101734;1253;1010327;-68
2023/02/08 00:28:43;;;;;;;12.70;7.40;;;;;;;-128.00;-1.00;-1.00;101815;1254;1013924;-66
2023/02/08 00:31:16;;;;;;;15.50;7.80;;;;;;;-128.00;-1.00;-1.00;101656;1254;1013771;-65
2023/02/08 00:33:47;;;;;;;12.60;7.70;;;;;;;-128.00;-1.00;-1.00;101894;1257;1015289;-64
2023/02/08 00:36:16;;;;;;;11.80;7.20;;;;;;;-128.00;-1.00;-1.00;101814;1254;1013557;-64
2023/02/08 00:38:44;;;;;;;12.70;7.80;;;;;;;-128.00;-1.00;-1.00;101741;1254;1010855;-65
2023/02/08 00:41:15;;;;;;;13.40;7.40;;;;;;;-128.00;-1.00;-1.00;101859;1254;1015401;-66
2023/02/08 00:43:44;;;;;;;13.30;7.60;;;;;;;-128.00;-1.00;-1.00;101815;1254;1016054;-65
2023/02/08 00:46:14;;;;;;;11.10;7.40;;;;;;;-128.00;-1.00;-1.00;101760;1254;1012944;-63
2023/02/08 00:48:46;;;;;;;14.00;7.90;;;;;;;-128.00;-1.00;-1.00;101777;1254;1012732;-67
2023/02/08 00:51:14;;;;;;;11.60;7.60;;;;;;;-128.00;-1.00;-1.00;101803;1257;1012444;-64
2023/02/08 00:53:44;;;;;;;11.50;7.20;;;;;;;-128.00;-1.00;-1.00;101938;1254;1010695;-65
2023/02/08 00:56:13;;;;;;;15.00;7.50;;;;;;;-128.00;-1.00;-1.00;101752;1255;1013174;-64
2023/02/08 00:58:43;;;;;;;12.00;7.40;;;;;;;-128.00;-1.00;-1.00;101868;1257;1012920;-66
2023/02/08 01:01:12;;;;;;;13.00;7.40;;;;;;;-128.00;-1.00;-1.00;102008;1256;1012803;-64
2023/02/08 01:03:41;;;;;;;11.50;6.90;;;;;;;-128.00;-1.00;-1.00;101802;1254;1010795;-65
2023/02/08 01:06:15;;;;;;;14.00;6.90;;;;;;;-128.00;-1.00;-1.00;101831;1256;1010761;-66
2023/02/08 01:08:45;;;;;;;14.10;7.50;;;;;;;-128.00;-1.00;-1.00;101736;1254;1016053;-67
2023/02/08 01:11:21;;;;;;;12.10;6.80;;;;;;;-128.00;-1.00;-1.00;101832;1251;1012171;-66
2023/02/08 01:13:54;;;;;;;13.80;7.60;;;;;;;-128.00;-1.00;-1.00;101784;1257;1012632;-66
2023/02/08 01:16:26;;;;;;;13.90;7.90;;;;;;;-128.00;-1.00;-1.00;101774;1257;1010379;-66
2023/02/08 01:18:56;;;;;;;15.20;7.70;;;;;;;-128.00;-1.00;-1.00;101839;1254;1012221;-66
2023/02/08 01:21:27;;;;;;;12.60;7.20;;;;;;;-128.00;-1.00;-1.00;101803;1267;1013101;-67
2023/02/08 01:23:56;;;;;;;10.80;6.90;;;;;;;-128.00;-1.00;-1.00;101748;1251;1015245;-67
2023/02/08 01:26:25;;;;;;;12.60;6.90;;;;;;;-128.00;-1.00;-1.00;101777;1253;1012315;-66
2023/02/08 01:28:55;;;;;;;13.20;7.70;;;;;;;-128.00;-1.00;-1.00;101841;1253;1011321;-66
2023/02/08 01:31:32;;;;;;;14.30;8.10;;;;;;;-128.00;-1.00;-1.00;101830;1253;1011128;-66
2023/02/08 01:34:01;;;;;;;14.00;7.30;;;;;;;-128.00;-1.00;-1.00;101732;1256;1015904;-64
2023/02/08 01:36:30;;;;;;;11.80;7.20;;;;;;;-128.00;-1.00;-1.00;101859;1254;1012759;-66
2023/02/08 01:39:01;;;;;;;11.40;7.30;;;;;;;-128.00;-1.00;-1.00;101822;1254;1013801;-66
2023/02/08 01:41:36;;;;;;;10.90;6.50;;;;;;;-128.00;-1.00;-1.00;101846;1252;1010550;-64
2023/02/08 01:44:11;;;;;;;15.30;7.40;;;;;;;-128.00;-1.00;-1.00;101918;1251;1011231;-65
2023/02/08 01:46:40;;;;;;;10.70;6.60;;;;;;;-128.00;-1.00;-1.00;101773;1257;1015687;-65
2023/02/08 01:49:12;;;;;;;11.90;7.70;;;;;;;-128.00;-1.00;-1.00;101828;1253;1013591;-65
2023/02/08 01:51:52;;;;;;;11.10;6.00;;;;;;;-128.00;-1.00;-1.00;101856;1254;1013395;-65
2023/02/08 01:54:22;;;;;;;12.20;7.20;;;;;;;-128.00;-1.00;-1.00;101786;1254;1010329;-65
2023/02/08 01:56:52;;;;;;;12.20;7.00;;;;;;;-128.00;-1.00;-1.00;101881;1256;1011659;-65
2023/02/08 01:59:26;;;;;;;12.30;7.20;;;;;;;-128.00;-1.00;-1.00;101794;1255;1012738;-67
2023/02/08 02:01:55;;;;;;;14.20;7.70;;;;;;;-128.00;-1.00;-1.00;101762;1259;1014920;-64
2023/02/08 02:04:24;;;;;;;10.00;6.70;;;;;;;-128.00;-1.00;-1.00;101855;1254;1013039;-64
2023/02/08 02:06:56;;;;;;;14.80;7.50;;;;;;;-128.00;-1.00;-1.00;101816;1254;1010023;-67
2023/02/08 02:09:44;;;;;;;14.00;7.30;;;;;;;-128.00;-1.00;-1.00;101834;1251;1010600;-66
2023/02/08 02:12:16;;;;;;;12.90;7.70;;;;;;;-128.00;-1.00;-1.00;101824;1253;1013424;-65
2023/02/08 02:14:45;;;;;;;13.90;7.40;;;;;;;-128.00;-1.00;-1.00;101831;1257;1012776;-66
2023/02/08 02:17:15;;;;;;;14.80;7.50;;;;;;;-128.00;-1.00;-1.00;101796;1260;1013912;-66
2023/02/08 02:20:00;;;;;;;15.80;7.10;;;;;;;-128.00;-1.00;-1.00;101776;1254;1010693;-65
2023/02/08 02:22:48;;;;;;;15.00;7.80;;;;;;;-128.00;-1.00;-1.00;101939;1254;1012041;-65
2023/02/08 02:25:27;;;;;;;13.90;7.90;;;;;;;-128.00;-1.00;-1.00;101869;1254;1013099;-65
2023/02/08 02:28:36;;;;;;;16.10;8.20;;;;;;;-128.00;-1.00;-1.00;101900;1254;1012799;-64
2023/02/08 02:31:41;;;;;;;14.80;8.00;;;;;;;-128.00;-1.00;-1.00;101840;1254;1013285;-65
2023/02/08 02:34:31;;;;;;;15.60;8.20;;;;;;;-128.00;-1.00;-1.00;101786;1253;1010795;-64
2023/02/08 02:37:37;;;;;;;14.90;8.90;;;;;;;-128.00;-1.00;-1.00;101852;1257;1011873;-65
2023/02/08 02:40:21;;;;;;;17.30;8.40;;;;;;;-128.00;-1.00;-1.00;101809;1257;1015775;-65
2023/02/08 02:46:25;;;;;;;17.20;8.10;;;;;;;-128.00;-1.00;-1.00;101817;1251;1012697;-65
2023/02/08 02:49:03;;;;;;;14.20;8.00;;;;;;;-128.00;-1.00;-1.00;101827;1253;1010047;-67
2023/02/08 02:52:08;;;;;;;16.40;9.10;;;;;;;-128.00;-1.00;-1.00;101792;1254;1011134;-66
2023/02/08 02:54:50;;;;;;;16.30;8.70;;;;;;;-128.00;-1.00;-1.00;101771;1257;1013194;-65
2023/02/08 02:57:27;;;;;;;17.40;9.50;;;;;;;-128.00;-1.00;-1.00;101965;1257;1012982;-65
2023/02/08 02:59:55;;;;;;;15.40;8.90;;;;;;;-128.00;-1.00;-1.00;101767;1257;1013449;-65
2023/02/08 03:02:27;;;;;;;14.30;8.50;;;;;;;-128.00;-1.00;-1.00;101798;1257;1012222;-66
2023/02/08 03:04:56;;;;;;;15.60;8.70;;;;;;;-128.00;-1.00;-1.00;101863;1251;1011936;-65
2023/02/08 03:07:37;;;;;;;17.60;9.10;;;;;;;-128.00;-1.00;-1.00;101781;1255;1015153;-66
2023/02/08 03:10:12;;;;;;;16.20;8.40;;;;;;;-128.00;-1.00;-1.00;101802;1257;1012313;-65
2023/02/08 03:12:45;;;;;;;17.10;8.40;;;;;;;-128.00;-1.00;-1.00;101845;1254;1013013;-66
2023/02/08 03:15:14;;;;;;;14.20;8.10;;;;;;;-128.00;-1.00;-1.00;101797;1257;1012220;-64
2023/02/08 03:17:53;;;;;;;19.70;9.30;;;;;;;-128.00;-1.00;-1.00;101844;1251;1014658;-65
2023/02/08 03:20:33;;;;;;;14.90;7.90;;;;;;;-128.00;-1.00;-1.00;101829;1256;1012855;-65
2023/02/08 03:23:24;;;;;;;15.50;8.50;;;;;;;-128.00;-1.00;-1.00;101715;1257;1012980;-65
2023/02/08 03:26:01;;;;;;;17.00;8.50;;;;;;;-128.00;-1.00;-1.00;101855;1251;1012200;-63
2023/02/08 03:28:39;;;;;;;16.00;8.20;;;;;;;-128.00;-1.00;-1.00;101895;1251;1010816;-65
2023/02/08 03:31:13;;;;;;;;;;;;;;;-128.00;-1.00;-1.00;101891;1254;1010944;-64
2023/02/08 03:33:48;;;;;;;15.30;8.10;;;;;;;-128.00;-1.00;-1.00;101752;1256;1015721;-64
2023/02/08 03:36:23;;;;;;;13.70;8.40;;;;;;;-128.00;-1.00;-1.00;101811;1253;1016166;-64
2023/02/08 03:38:52;;;;;;;13.70;8.00;;;;;;;-128.00;-1.00;-1.00;101858;1261;1013361;-65
2023/02/08 03:41:30;;;;;;;13.50;8.10;;;;;;;-128.00;-1.00;-1.00;101909;1254;1011143;-63
2023/02/08 03:44:10;;;;;;;16.40;9.20;;;;;;;-128.00;-1.00;-1.00;101719;1257;1011466;-67
2023/02/08 03:47:07;;;;;;;14.50;8.30;;;;;;;-128.00;-1.00;-1.00;101782;1260;1013492;-66
2023/02/08 03:49:36;;;;;;;16.00;8.50;;;;;;;-128.00;-1.00;-1.00;101806;1254;1013081;-65
2023/02/08 03:52:06;;;;;;;19.70;8.90;;;;;;;-128.00;-1.00;-1.00;101815;1256;1012736;-65
2023/02/08 03:54:42;;;;;;;15.80;7.90;;;;;;;-128.00;-1.00;-1.00;101882;1251;1010826;-64
2023/02/08 03:57:22;;;;;;;18.20;9.10;;;;;;;-128.00;-1.00;-1.00;101858;1254;1010626;-64
2023/02/08 03:59:56;;;;;;;20.40;10.80;;;;;;;-128.00;-1.00;-1.00;101762;1256;1014455;-64
2023/02/08 04:02:26;;;;;;;19.00;10.60;;;;;;;-128.00;-1.00;-1.00;101632;1255;1015876;-65
2023/02/08 04:06:28;;;;;;;14.70;8.80;;;;;;;-8.28;100.00;102383.23;101975;1289;600647;-64
2023/02/08 04:08:57;;;;;;;17.70;10.30;;;;;;;-8.11;100.00;102391.74;104061;1265;60758;-63
2023/02/08 04:11:27;;;;;;;14.40;8.40;;;;;;;-8.11;100.00;102396.64;104263;1275;60496;-63
2023/02/08 04:13:57;;;;;;;14.70;8.50;;;;;;;-8.10;100.00;102405.10;104226;1260;71809;-63
2023/02/08 04:16:25;;;;;;;19.90;9.20;;;;;;;-8.10;100.00;102408.16;104163;1281;68141;-63
2023/02/08 04:18:53;;;;;;;15.20;8.70;;;;;;;-8.12;100.00;102411.86;104233;1263;72529;-62
2023/02/08 04:21:22;;;;;;;16.90;8.90;;;;;;;-8.16;100.00;102411.75;104451;1257;60459;-63
2023/02/08 04:23:50;;;;;;;17.70;9.80;;;;;;;-8.19;100.00;102405.39;104470;1262;60632;-65
2023/02/08 04:26:19;;;;;;;16.90;9.50;;;;;;;-8.20;100.00;102418.08;104553;1259;71707;-65
2023/02/08 04:28:47;;;;;;;15.40;8.70;;;;;;;-8.21;100.00;102424.02;104462;1257;70156;-62
2023/02/08 04:31:16;;;;;;;15.40;8.30;;;;;;;-8.23;100.00;102421.13;104531;1260;71308;-64
2023/02/08 04:33:45;;;;;;;14.60;8.60;;;;;;;-8.23;100.00;102427.55;104502;1257;60842;-65
2023/02/08 04:36:13;;;;;;;16.30;9.50;;;;;;;-8.23;100.00;102430.07;104515;1259;60853;-65
2023/02/08 04:38:41;;;;;;;16.40;9.30;;;;;;;-8.23;100.00;102431.95;104544;1259;71161;-65
2023/02/08 04:41:10;;;;;;;17.60;9.20;;;;;;;-8.26;100.00;102431.26;104532;1255;68679;-65
2023/02/08 04:43:38;;;;;;;16.20;8.80;;;;;;;-8.28;100.00;102431.91;104415;1275;72014;-65
2023/02/08 04:46:07;;;;;;;15.20;8.90;;;;;;;-8.30;100.00;102437.91;104465;1259;60879;-65
2023/02/08 05:55:58;;;;;;;9.70;6.00;;;;;;;-10.91;100.00;102520.03;102187;1291;601008;-60
2023/02/08 05:58:27;;;;;;;15.10;7.50;;;;;;;-10.22;100.00;102523.91;103800;1280;61585;-64
2023/02/08 06:00:55;;;;;;;20.60;9.80;;;;;;;-9.99;100.00;102524.60;103858;1264;60496;-69
2023/02/08 06:03:24;;;;;;;19.80;10.80;;;;;;;-9.82;100.00;102530.11;103694;1287;73924;-65
2023/02/08 06:05:53;;;;;;;21.60;11.30;;;;;;;-9.68;100.00;102534.20;103800;1270;71639;-64
2023/02/08 06:08:21;;;;;;;23.60;12.70;;;;;;;-9.54;100.00;102535.66;103633;1281;251216;-69
2023/02/08 06:10:50;;;;;;;23.90;12.70;;;;;;;-9.41;100.00;102535.94;103999;1263;62445;-66
2023/02/08 06:13:18;;;;;;;26.60;14.20;;;;;;;-80.54;39.40;41013.64;102952;1256;1004143;-64
2023/02/08 06:15:47;;;;;;;25.90;12.50;;;;;;;-128.00;-1.00;-1.00;101978;1256;1014985;-65
2023/02/08 06:18:16;;;;;;;24.40;12.60;;;;;;;-128.00;-1.00;-1.00;101875;1258;1013236;-65
2023/02/08 06:20:44;;;;;;;26.30;13.90;;;;;;;-128.00;-1.00;-1.00;101880;1254;1013097;-64
2023/02/08 06:23:13;;;;;;;28.70;13.50;;;;;;;-128.00;-1.00;-1.00;101869;1254;1010480;-64
2023/02/08 06:25:44;;;;;;;29.80;14.30;;;;;;;-128.00;-1.00;-1.00;102121;1256;1011562;-64
2023/02/08 06:28:12;;;;;;;25.60;14.20;;;;;;;-128.00;-1.00;-1.00;101901;1259;1012620;-60
2023/02/08 06:30:41;;;;;;;26.70;13.60;;;;;;;-128.00;-1.00;-1.00;102177;1255;1015587;-64
2023/02/08 06:33:11;;;;;;;23.60;12.40;;;;;;;-128.00;-1.00;-1.00;101649;1257;1013113;-66
2023/02/08 06:35:47;;;;;;;23.60;12.40;;;;;;;-128.00;-1.00;-1.00;101900;1254;1010824;-65
2023/02/08 06:38:15;;;;;;;27.90;13.50;;;;;;;-128.00;-1.00;-1.00;101534;1254;1014615;-65
2023/02/08 06:40:47;;;;;;;28.40;14.00;;;;;;;-128.00;-1.00;-1.00;101741;1255;1013174;-63
2023/02/08 06:43:17;;;;;;;22.60;13.10;;;;;;;-128.00;-1.00;-1.00;101827;1253;1013070;-70
2023/02/08 06:45:50;;;;;;;28.50;13.10;;;;;;;-128.00;-1.00;-1.00;101545;1255;1013376;-65
2023/02/08 07:12:52;;;;;;;22.50;10.50;;;;;;;-9.38;100.00;102569.13;102551;1292;618387;-68
2023/02/08 07:15:20;;;;;;;22.30;13.50;;;;;;;-8.65;100.00;102567.67;103482;1283;63479;-64
2023/02/08 07:17:48;;;;;;;26.10;14.00;;;;;;;-8.35;100.00;102565.16;103829;1273;61303;-65
2023/02/08 07:20:16;;;;;;;26.20;13.90;;;;;;;-8.13;100.00;102566.89;103631;1272;72860;-66
2023/02/08 07:22:45;;;;;;;30.40;15.60;;;;;;;-7.92;100.00;102558.69;103441;1267;72394;-67
2023/02/08 07:25:12;;;;;;;30.30;15.50;;;;;;;-7.73;100.00;102559.80;103632;1276;178208;-68
2023/02/08 07:27:40;;;;;;;;;;;;;;;-7.55;100.00;102556.79;104123;1264;63141;-66
2023/02/08 07:30:08;;;;;;;27.10;13.90;;;;;;;-7.41;100.00;102549.65;104045;1269;62369;-67
2023/02/08 07:32:36;;;;;;;26.20;14.50;;;;;;;-7.24;100.00;102550.96;103897;1268;72869;-68
2023/02/08 07:35:03;;;;;;;23.70;14.90;;;;;;;-103.82;19.20;20509.32;101192;1264;1003033;-70
2023/02/08 07:37:31;;;;;;;31.90;15.90;;;;;;;-128.00;-1.00;-1.00;101493;1263;1002841;-67
2023/02/08 07:39:58;;;;;;;30.30;15.20;;;;;;;-128.00;-1.00;-1.00;101460;1267;1010970;-71
2023/02/08 07:42:26;;;;;;;29.60;15.80;;;;;;;-128.00;-1.00;-1.00;101406;1266;1002389;-74
2023/02/08 07:45:20;;;;;;;26.80;15.20;;;;;;;-128.00;-1.00;-1.00;101104;1264;1012531;-72
2023/02/08 07:47:47;;;;;;;28.10;15.70;;;;;;;-128.00;-1.00;-1.00;101383;1267;1004100;-64
2023/02/08 07:51:55;;;;;;;27.00;15.20;;;;;;;-6.30;100.00;102554.11;102195;1294;602704;-71
2023/02/08 07:54:24;;;;;;;26.00;14.40;;;;;;;-5.98;100.00;102549.59;103810;1271;60083;-70
2023/02/08 07:56:52;;;;;;;27.90;14.50;;;;;;;-5.94;100.00;102554.75;103864;1282;60927;-69
2023/02/08 07:59:21;;;;;;;24.50;14.00;;;;;;;-5.86;100.00;102557.86;103617;1288;71236;-70
2023/02/08 08:01:51;;;;;;;24.10;13.40;;;;;;;-5.81;100.00;102558.88;104597;1276;70689;-69
2023/02/08 08:04:20;;;;;;;22.70;13.40;;;;;;;-5.79;100.00;102557.02;105447;1257;73377;-70
2023/02/08 08:06:50;;;;;;;20.30;12.70;;;;;;;-5.70;100.00;102558.48;104745;1266;60421;-68
2023/02/08 08:09:19;;;;;;;19.90;12.00;;;;;;;-5.64;100.00;102557.02;104548;1267;60446;-71
2023/02/08 08:11:47;;;;;;;21.30;12.20;;;;;;;-5.60;100.00;102556.08;104707;1256;71299;-71
2023/02/08 08:14:16;;;;;;;26.20;13.50;;;;;;;-5.59;100.00;102555.80;104703;1254;69586;-72
2023/02/08 08:16:45;;;;;;;18.40;11.30;;;;;;;-5.56;100.00;102559.30;104704;1265;72427;-66
2023/02/08 08:19:18;;;;;;;19.40;11.90;;;;;;;-5.48;100.00;102559.52;104761;1256;60882;-67
2023/02/08 08:21:46;;;;;;;19.30;11.20;;;;;;;-5.39;100.00;102561.46;104645;1265;60873;-69
2023/02/08 08:24:15;;;;;;;24.00;12.70;;;;;;;-5.21;100.00;102562.05;104549;1255;73030;-67
2023/02/08 08:26:43;;;;;;;19.90;12.00;;;;;;;-5.05;100.00;102560.21;104806;1267;70136;-64
2023/02/08 08:29:12;;;;;;;18.10;11.20;;;;;;;-4.91;100.00;102560.60;104410;1264;72793;-63
2023/02/08 08:31:41;;;;;;;18.50;11.50;;;;;;;-4.76;100.00;102564.36;104895;1256;60963;-63
2023/02/08 08:34:10;;;;;;;22.10;12.00;;;;;;;-4.58;100.00;102559.89;105001;1267;60758;-64
2023/02/08 08:36:39;;;;;;;20.50;11.50;;;;;;;-4.42;100.00;102563.13;104543;1257;72689;-62
2023/02/08 08:39:07;;;;;;;21.70;11.50;;;;;;;-4.27;100.00;102565.27;104888;1256;68448;-64
2023/02/08 08:41:37;;;;;;;18.00;10.80;;;;;;;-4.08;100.00;102562.75;104794;1255;71926;-63
2023/02/08 08:44:05;;;;;;;21.80;10.80;;;;;;;-3.93;100.00;102559.94;105503;1257;61217;-64
2023/02/08 08:46:34;;;;;;;20.00;10.80;;;;;;;-3.74;100.00;102562.27;104833;1267;60861;-64
2023/02/08 08:49:02;;;;;;;20.50;11.80;;;;;;;-3.59;100.00;102561.66;104667;1260;73100;-63
2023/02/08 08:51:34;;;;;;;17.00;10.50;;;;;;;-3.52;100.00;102563.81;104825;1257;69771;-64
2023/02/08 08:54:05;;;;;;;19.00;11.20;;;;;;;-3.47;100.00;102561.16;104903;1266;72558;-63
2023/02/08 08:56:34;;;;;;;17.90;10.70;;;;;;;-3.43;100.00;102564.00;105286;1256;60866;-63
2023/02/08 08:59:03;;;;;;;16.20;10.00;;;;;;;-3.39;100.00;102563.73;104667;1257;60921;-63
2023/02/08 09:01:32;;;;;;;17.40;10.30;;;;;;;-3.33;100.00;102564.46;105187;1256;73336;-63
2023/02/08 09:04:01;;;;;;;16.40;9.90;;;;;;;-3.19;100.00;102566.52;105024;1255;70413;-64
2023/02/08 09:06:30;;;;;;;17.10;11.40;;;;;;;-3.03;100.00;102561.78;105008;1256;73673;-63
2023/02/08 09:08:59;;;;;;;17.70;10.10;;;;;;;-2.88;100.00;102556.42;104803;1257;60782;-63
2023/02/08 09:11:27;;;;;;;19.30;10.10;;;;;;;-2.77;100.00;102555.08;104870;1256;60767;-65
2023/02/08 09:13:56;;;;;;;16.10;10.30;;;;;;;-2.62;100.00;102552.95;104618;1258;71802;-64
2023/02/08 09:16:25;;;;;;;17.20;9.60;;;;;;;-2.49;100.00;102550.98;105071;1263;68256;-65
2023/02/08 09:18:53;;;;;;;14.20;9.80;;;;;;;-2.37;100.00;102551.53;104788;1260;72720;-64
2023/02/08 09:21:24;;;;;;;16.00;9.60;;;;;;;-2.27;100.00;102548.45;104707;1266;60873;-64
2023/02/08 09:23:52;;;;;;;14.90;8.90;;;;;;;-2.16;100.00;102542.52;104776;1264;60860;-65
2023/02/08 09:26:21;;;;;;;13.10;8.60;;;;;;;-2.03;100.00;102543.92;104578;1255;71970;-62
2023/02/08 09:28:49;;;;;;;17.00;8.80;;;;;;;-1.88;100.00;102543.52;104569;1257;70865;-63
2023/02/08 09:31:32;;;;;;;12.70;9.30;;;;;;;-1.73;100.00;102544.48;104790;1258;71742;-64
2023/02/08 09:34:00;;;;;;;14.90;8.50;;;;;;;-1.58;100.00;102537.73;104710;1255;60811;-70
2023/02/08 09:36:31;;;;;;;14.00;8.90;;;;;;;-1.53;100.00;102535.22;104773;1258;60889;-72
2023/02/08 09:39:05;;;;;;;13.90;8.60;;;;;;;-1.54;100.00;102536.38;104662;1267;72988;-70
2023/02/08 09:41:46;;;;;;;14.80;8.20;;;;;;;-1.52;100.00;102535.11;105166;1257;68775;-72
2023/02/08 09:44:32;;;;;;;12.60;7.80;;;;;;;-1.45;100.00;102537.02;104924;1251;73984;-69
2023/02/08 09:47:20;;;;;;;11.20;7.00;;;;;;;-1.36;100.00;102534.42;104667;1258;60866;-71
2023/02/08 09:50:13;;;;;;;10.30;6.40;;;;;;;-1.12;100.00;102531.02;104601;1256;60773;-70
2023/02/08 09:52:44;;;;;;;9.90;7.00;;;;;;;-0.46;100.00;102523.59;104973;1263;72087;-69
2023/02/08 09:55:39;;;;;;;8.60;6.20;;;;;;;0.09;100.00;102515.31;105344;1251;69403;-69
2023/02/08 09:58:16;;;;;;;10.60;6.90;;;;;;;0.53;100.00;102514.89;104872;1257;73688;-69
2023/02/08 10:00:46;;;;;;;11.20;6.30;;;;;;;0.67;100.00;102509.27;104871;1251;60774;-69
2023/02/08 10:03:23;;;;;;;10.60;7.40;;;;;;;0.60;100.00;102507.41;104821;1263;61203;-69
2023/02/08 10:05:52;;;;;;;9.50;6.70;;;;;;;0.54;100.00;102503.19;104960;1256;72778;-70
2023/02/08 10:08:20;;;;;;;9.60;6.60;;;;;;;0.67;100.00;102498.36;104895;1257;70252;-69
2023/02/08 10:11:31;;;;;;;9.90;6.90;;;;;;;0.82;100.00;102499.73;104510;1257;72456;-69
2023/02/08 10:14:25;;;;;;;10.10;6.70;;;;;;;0.93;100.00;102499.19;104548;1252;60873;-70
2023/02/08 10:17:18;;;;;;;9.20;7.20;;;;;;;0.95;100.00;102499.05;104956;1254;60761;-71
2023/02/08 10:19:53;;;;;;;9.00;6.60;;;;;;;0.98;100.00;102496.79;104737;1254;72115;-69
2023/02/08 10:23:01;;;;;;;9.80;7.10;;;;;;;1.02;100.00;102492.98;104584;1267;69206;-69
2023/02/08 10:25:37;;;;;;;11.60;7.90;;;;;;;1.01;100.00;102496.73;104978;1256;73387;-70
2023/02/08 10:28:05;;;;;;;10.90;7.50;;;;;;;0.90;100.00;102493.52;105226;1251;60752;-70
2023/02/08 10:30:44;;;;;;;11.40;8.60;;;;;;;0.81;100.00;102494.52;104681;1255;60793;-68
2023/02/08 10:33:20;;;;;;;11.70;8.40;;;;;;;0.71;100.00;102498.75;104561;1266;74414;-69
2023/02/08 10:35:49;;;;;;;12.70;7.80;;;;;;;0.58;100.00;102496.95;104488;1264;69261;-67
2023/02/08 10:38:27;;;;;;;10.90;8.10;;;;;;;0.51;100.00;102494.05;104684;1257;71874;-67
2023/02/08 10:41:16;;;;;;;10.50;7.80;;;;;;;0.49;100.00;102495.34;104419;1273;60903;-69
2023/02/08 10:43:48;;;;;;;10.40;7.40;;;;;;;0.57;100.00;102498.31;104445;1275;60885;-67
2023/02/08 10:46:19;;;;;;;9.80;7.80;;;;;;;0.62;100.00;102496.80;104459;1252;73041;-68
2023/02/08 10:49:07;;;;;;;12.90;8.50;;;;;;;0.67;100.00;102499.09;104501;1257;68516;-70
2023/02/08 10:51:35;;;;;;;;;;;;;;;0.81;100.00;102502.98;104800;1257;72859;-69
2023/02/08 10:54:03;;;;;;;10.10;7.20;;;;;;;0.87;100.00;102502.89;104502;1270;60822;-67
2023/02/08 10:56:36;;;;;;;10.90;6.70;;;;;;;0.90;100.00;102501.64;104677;1256;60838;-66
2023/02/08 10:59:25;;;;;;;9.50;7.00;;;;;;;0.96;100.00;102499.13;104858;1267;71441;-67
2023/02/08 11:01:53;;;;;;;10.00;7.30;;;;;;;1.04;100.00;102497.88;104773;1257;68720;-66
2023/02/08 11:04:22;;;;;;;9.50;7.60;;;;;;;1.12;100.00;102498.07;104693;1267;71957;-66
2023/02/08 11:06:53;;;;;;;10.00;6.90;;;;;;;1.13;100.00;102497.58;104800;1251;60878;-62
2023/02/08 11:09:27;;;;;;;9.10;7.10;;;;;;;1.11;100.00;102498.68;104429;1257;62205;-65
2023/02/08 11:11:59;;;;;;;11.40;8.20;;;;;;;1.05;100.00;102499.50;104584;1256;73386;-65
2023/02/08 11:14:38;;;;;;;13.10;7.80;;;;;;;1.06;100.00;102500.38;104993;1256;68346;-67
2023/02/08 11:17:32;;;;;;;;;;;;;;;1.08;100.00;102498.90;104605;1267;72249;-69
2023/02/08 11:20:01;;;;;;;13.00;7.10;;;;;;;1.06;99.39;102498.13;104552;1256;61039;-65
2023/02/08 11:22:30;;;;;;;11.50;7.40;;;;;;;0.98;99.96;102496.95;104664;1257;60806;-66
2023/02/08 11:25:04;;;;;;;12.10;7.60;;;;;;;0.98;100.00;102495.06;104929;1254;72427;-67
2023/02/08 11:27:35;;;;;;;8.90;6.90;;;;;;;1.00;100.00;102491.15;104662;1256;70649;-70
2023/02/08 11:30:12;;;;;;;17.30;8.70;;;;;;;1.00;100.00;102495.28;104896;1256;72165;-68
2023/02/08 11:32:42;;;;;;;11.60;7.50;;;;;;;1.00;100.00;102496.34;104524;1264;60984;-69
2023/02/08 11:35:20;;;;;;;12.20;8.30;;;;;;;1.12;100.00;102499.96;104508;1267;61093;-67
2023/02/08 11:37:51;;;;;;;10.90;7.50;;;;;;;1.27;96.29;102498.86;104474;1255;71575;-67
2023/02/08 11:40:25;;;;;;;12.40;8.20;;;;;;;1.37;99.80;102502.88;104525;1257;70543;-65
2023/02/08 11:42:55;;;;;;;9.50;7.00;;;;;;;1.50;98.10;102508.73;104491;1257;72607;-68
2023/02/08 11:45:28;;;;;;;10.20;6.30;;;;;;;1.52;95.68;102510.08;104640;1256;60865;-74
2023/02/08 11:47:57;;;;;;;9.30;6.50;;;;;;;1.61;97.42;102515.95;105176;1259;60850;-64
2023/02/08 11:50:29;;;;;;;10.50;6.50;;;;;;;1.71;98.45;102515.28;105124;1251;73042;-64
2023/02/08 11:52:59;;;;;;;10.50;6.60;;;;;;;1.76;92.81;102517.23;104753;1253;68616;-71
2023/02/08 11:55:30;;;;;;;11.30;6.90;;;;;;;1.78;97.34;102518.33;104791;1257;72487;-75
2023/02/08 11:57:59;;;;;;;9.80;6.80;;;;;;;1.84;95.90;102514.23;104630;1256;60895;-70
2023/02/08 12:00:36;;;;;;;11.90;7.10;;;;;;;1.89;94.15;102516.69;104649;1253;60866;-67
2023/02/08 12:03:21;;;;;;;8.70;6.30;;;;;;;1.92;91.07;102512.32;104667;1270;71921;-66
2023/02/08 12:06:13;;;;;;;8.30;6.20;;;;;;;1.92;93.89;102509.89;104874;1267;68899;-70
2023/02/08 12:08:59;;;;;;;10.60;6.20;;;;;;;1.97;90.32;102510.23;104501;1256;74516;-65
2023/02/08 12:11:46;;;;;;;10.00;6.50;;;;;;;2.01;91.91;102502.94;104638;1256;61610;-64
2023/02/08 12:14:42;;;;;;;9.00;5.90;;;;;;;2.04;85.05;102504.27;104963;1256;61714;-66
2023/02/08 12:17:32;;;;;;;10.10;6.20;;;;;;;2.09;88.11;102500.13;104632;1264;73754;-66
2023/02/08 12:20:16;;;;;;;7.70;5.50;;;;;;;2.16;85.50;102499.20;104651;1258;68906;-65
2023/02/08 12:23:11;;;;;;;8.90;6.60;;;;;;;2.19;83.77;102497.56;104784;1257;74236;-64
2023/02/08 12:25:43;;;;;;;8.50;5.70;;;;;;;2.20;82.13;102496.40;104936;1259;61761;-66
2023/02/08 12:28:22;;;;;;;9.70;6.10;;;;;;;2.23;87.36;102493.59;104494;1256;61666;-64
2023/02/08 12:31:11;;;;;;;9.20;6.40;;;;;;;2.30;87.46;102497.31;104648;1256;74975;-66
2023/02/08 12:33:57;;;;;;;9.30;5.80;;;;;;;2.39;86.12;102497.95;104929;1257;68088;-64
2023/02/08 12:36:31;;;;;;;11.50;6.60;;;;;;;2.48;87.53;102498.80;104606;1253;71930;-64
2023/02/08 12:42:18;;;;;;;9.40;6.80;;;;;;;2.55;77.56;102502.17;105136;1256;61675;-67
2023/02/08 12:44:50;;;;;;;10.40;7.00;;;;;;;2.62;78.81;102497.22;104630;1255;72542;-64
2023/02/08 12:47:40;;;;;;;9.60;6.90;;;;;;;2.68;80.96;102500.38;104863;1254;69118;-63
2023/02/08 12:50:46;;;;;;;12.70;7.40;;;;;;;2.74;77.29;102495.75;104675;1262;71355;-64
2023/02/08 12:53:51;;;;;;;11.10;7.70;;;;;;;2.79;75.84;102491.59;104925;1267;61691;-63
2023/02/08 12:56:22;;;;;;;10.80;7.10;;;;;;;2.82;73.75;102491.69;104762;1267;61667;-66
2023/02/08 12:59:01;;;;;;;9.10;6.80;;;;;;;2.89;74.85;102486.54;105343;1256;73564;-67
2023/02/08 13:01:43;;;;;;;8.90;6.40;;;;;;;2.91;74.34;102484.91;104953;1256;69137;-65
2023/02/08 13:04:40;;;;;;;12.10;8.10;;;;;;;2.92;75.03;102483.56;104502;1258;73682;-64
2023/02/08 13:07:40;;;;;;;9.30;6.80;;;;;;;3.00;74.79;102483.29;105130;1254;61697;-66
2023/02/08 13:10:25;;;;;;;10.60;6.50;;;;;;;3.05;69.70;102479.65;104623;1252;61694;-65
2023/02/08 13:12:57;;;;;;;11.20;7.50;;;;;;;3.15;73.32;102473.89;104668;1256;72778;-64
2023/02/08 13:15:38;;;;;;;11.20;7.80;;;;;;;3.26;71.93;102473.05;104894;1264;70039;-64
2023/02/08 13:18:14;;;;;;;9.90;6.60;;;;;;;3.36;68.29;102475.09;105033;1254;71720;-65
2023/02/08 13:20:53;;;;;;;7.90;6.80;;;;;;;3.46;68.50;102475.24;104838;1252;61618;-63